sensor_id;sensor_type;location;lat;lon;timestamp;temperature;humidity
23591;DHT22;11973;52.098;7.582;2023-08-20T08:17:05;20.70;99.30
23591;DHT22;11973;52.098;7.582;2023-08-20T08:19:31;20.50;99.60
23591;DHT22;11973;52.098;7.582;2023-08-20T08:21:57;20.60;99.90
23591;DHT22;11973;52.098;7.582;2023-08-20T08:24:23;20.70;99.90
23591;DHT22;11973;52.098;7.582;2023-08-20T08:26:48;20.90;99.90
23591;DHT22;11973;52.098;7.582;2023-08-20T08:29:14;21.00;99.90
23591;DHT22;11973;52.098;7.582;2023-08-20T08:31:40;21.20;99.90
23591;DHT22;11973;52.098;7.582;2023-08-20T08:34:06;21.30;99.90
23591;DHT22;11973;52.098;7.582;2023-08-20T08:36:31;21.50;99.90
23591;DHT22;11973;52.098;7.582;2023-08-20T08:38:57;21.60;99.90
23591;DHT22;11973;52.098;7.582;2023-08-20T08:41:23;21.70;99.90
23591;DHT22;11973;52.098;7.582;2023-08-20T08:43:51;21.80;99.90
23591;DHT22;11973;52.098;7.582;2023-08-20T08:46:18;21.90;99.90
23591;DHT22;11973;52.098;7.582;2023-08-20T08:48:45;22.00;99.90
23591;DHT22;11973;52.098;7.582;2023-08-20T08:51:13;22.00;99.90
23591;DHT22;11973;52.098;7.582;2023-08-20T08:53:42;22.10;99.90
23591;DHT22;11973;52.098;7.582;2023-08-20T08:56:12;22.10;99.90
23591;DHT22;11973;52.098;7.582;2023-08-20T08:58:40;22.30;99.90
23591;DHT22;11973;52.098;7.582;2023-08-20T09:01:06;22.40;99.90
23591;DHT22;11973;52.098;7.582;2023-08-20T09:03:32;22.50;99.90
23591;DHT22;11973;52.098;7.582;2023-08-20T09:06:00;22.70;99.90
23591;DHT22;11973;52.098;7.582;2023-08-20T09:08:29;22.80;99.90
23591;DHT22;11973;52.098;7.582;2023-08-20T09:10:57;23.00;99.90
23591;DHT22;11973;52.098;7.582;2023-08-20T09:13:36;23.30;99.90
23591;DHT22;11973;52.098;7.582;2023-08-20T09:16:09;23.50;99.90
23591;DHT22;11973;52.098;7.582;2023-08-20T09:18:44;23.60;99.90
23591;DHT22;11973;52.098;7.582;2023-08-20T09:21:12;23.80;99.90
23591;DHT22;11973;52.098;7.582;2023-08-20T09:23:38;23.80;99.90
23591;DHT22;11973;52.098;7.582;2023-08-20T09:26:06;23.70;99.90
23591;DHT22;11973;52.098;7.582;2023-08-20T09:28:45;23.60;99.90
23591;DHT22;11973;52.098;7.582;2023-08-20T09:31:12;23.50;99.80
23591;DHT22;11973;52.098;7.582;2023-08-20T09:33:54;23.50;99.80
23591;DHT22;11973;52.098;7.582;2023-08-20T09:36:31;23.60;99.80
23591;DHT22;11973;52.098;7.582;2023-08-20T09:38:57;23.60;99.80
23591;DHT22;11973;52.098;7.582;2023-08-20T09:41:26;23.60;99.80
23591;DHT22;11973;52.098;7.582;2023-08-20T09:43:58;23.70;99.90
23591;DHT22;11973;52.098;7.582;2023-08-20T09:46:26;23.70;99.70
23591;DHT22;11973;52.098;7.582;2023-08-20T09:48:58;23.70;99.70
23591;DHT22;11973;52.098;7.582;2023-08-20T09:51:28;23.80;99.80
23591;DHT22;11973;52.098;7.582;2023-08-20T09:54:17;23.90;99.80
23591;DHT22;11973;52.098;7.582;2023-08-20T09:56:46;24.00;99.60
23591;DHT22;11973;52.098;7.582;2023-08-20T09:59:15;24.10;99.60
23591;DHT22;11973;52.098;7.582;2023-08-20T10:01:43;24.10;99.50
23591;DHT22;11973;52.098;7.582;2023-08-20T10:04:10;24.20;99.40
23591;DHT22;11973;52.098;7.582;2023-08-20T10:06:37;24.20;99.70
23591;DHT22;11973;52.098;7.582;2023-08-20T10:09:03;24.30;99.20
23591;DHT22;11973;52.098;7.582;2023-08-20T10:11:29;24.40;99.20
23591;DHT22;11973;52.098;7.582;2023-08-20T10:13:55;24.50;99.20
23591;DHT22;11973;52.098;7.582;2023-08-20T10:16:21;24.50;99.00
23591;DHT22;11973;52.098;7.582;2023-08-20T10:18:48;24.70;99.00
23591;DHT22;11973;52.098;7.582;2023-08-20T10:21:14;24.70;98.80
23591;DHT22;11973;52.098;7.582;2023-08-20T10:23:48;24.80;98.70
23591;DHT22;11973;52.098;7.582;2023-08-20T10:26:14;24.90;98.40
23591;DHT22;11973;52.098;7.582;2023-08-20T10:28:42;25.00;98.40
23591;DHT22;11973;52.098;7.582;2023-08-20T10:31:16;25.10;98.30
23591;DHT22;11973;52.098;7.582;2023-08-20T10:33:54;25.20;98.10
23591;DHT22;11973;52.098;7.582;2023-08-20T10:36:21;25.40;98.10
23591;DHT22;11973;52.098;7.582;2023-08-20T10:38:56;25.40;98.10
23591;DHT22;11973;52.098;7.582;2023-08-20T10:41:27;25.60;98.00
23591;DHT22;11973;52.098;7.582;2023-08-20T10:43:53;25.70;97.90
23591;DHT22;11973;52.098;7.582;2023-08-20T10:46:23;25.80;97.70
23591;DHT22;11973;52.098;7.582;2023-08-20T10:48:59;26.00;97.50
23591;DHT22;11973;52.098;7.582;2023-08-20T10:51:34;26.20;97.30
23591;DHT22;11973;52.098;7.582;2023-08-20T10:56:41;26.60;97.10
23591;DHT22;11973;52.098;7.582;2023-08-20T10:59:14;26.70;96.80
23591;DHT22;11973;52.098;7.582;2023-08-20T11:01:50;26.70;96.40
23591;DHT22;11973;52.098;7.582;2023-08-20T11:04:17;26.60;96.20
23591;DHT22;11973;52.098;7.582;2023-08-20T11:06:45;26.60;96.20
23591;DHT22;11973;52.098;7.582;2023-08-20T11:09:11;26.50;96.00
23591;DHT22;11973;52.098;7.582;2023-08-20T11:11:40;26.40;95.60
23591;DHT22;11973;52.098;7.582;2023-08-20T11:14:09;26.30;95.40
23591;DHT22;11973;52.098;7.582;2023-08-20T11:16:37;26.10;95.40
23591;DHT22;11973;52.098;7.582;2023-08-20T11:19:04;26.00;95.20
23591;DHT22;11973;52.098;7.582;2023-08-20T11:21:41;25.90;95.10
23591;DHT22;11973;52.098;7.582;2023-08-20T11:24:07;25.80;95.00
23591;DHT22;11973;52.098;7.582;2023-08-20T11:26:39;25.80;94.90
23591;DHT22;11973;52.098;7.582;2023-08-20T11:29:10;25.80;94.70
23591;DHT22;11973;52.098;7.582;2023-08-20T11:31:36;25.80;94.60
23591;DHT22;11973;52.098;7.582;2023-08-20T11:34:03;25.80;94.50
23591;DHT22;11973;52.098;7.582;2023-08-20T11:36:29;25.70;94.30
23591;DHT22;11973;52.098;7.582;2023-08-20T11:38:55;25.60;94.10
23591;DHT22;11973;52.098;7.582;2023-08-20T11:41:21;25.60;94.10
23591;DHT22;11973;52.098;7.582;2023-08-20T11:43:48;25.70;94.00
23591;DHT22;11973;52.098;7.582;2023-08-20T11:46:17;25.80;93.90
23591;DHT22;11973;52.098;7.582;2023-08-20T11:49:02;25.80;93.70
23591;DHT22;11973;52.098;7.582;2023-08-20T11:51:42;25.80;93.30
23591;DHT22;11973;52.098;7.582;2023-08-20T11:54:11;25.90;93.20
23591;DHT22;11973;52.098;7.582;2023-08-20T11:56:49;25.80;93.20
23591;DHT22;11973;52.098;7.582;2023-08-20T11:59:17;25.80;93.10
23591;DHT22;11973;52.098;7.582;2023-08-20T12:01:43;25.90;93.00
23591;DHT22;11973;52.098;7.582;2023-08-20T12:04:10;26.00;92.90
23591;DHT22;11973;52.098;7.582;2023-08-20T12:06:37;26.20;92.90
23591;DHT22;11973;52.098;7.582;2023-08-20T12:09:22;26.40;92.70
23591;DHT22;11973;52.098;7.582;2023-08-20T12:11:49;26.60;92.40
23591;DHT22;11973;52.098;7.582;2023-08-20T12:14:17;26.60;92.40
23591;DHT22;11973;52.098;7.582;2023-08-20T12:16:43;26.60;92.30
23591;DHT22;11973;52.098;7.582;2023-08-20T12:19:09;26.60;92.20
23591;DHT22;11973;52.098;7.582;2023-08-20T12:21:35;26.60;92.00
23591;DHT22;11973;52.098;7.582;2023-08-20T12:24:00;26.70;91.80
23591;DHT22;11973;52.098;7.582;2023-08-20T12:26:26;26.90;91.70
23591;DHT22;11973;52.098;7.582;2023-08-20T12:28:52;27.10;91.50
23591;DHT22;11973;52.098;7.582;2023-08-20T12:31:17;27.30;91.10
23591;DHT22;11973;52.098;7.582;2023-08-20T12:33:43;27.50;90.90
23591;DHT22;11973;52.098;7.582;2023-08-20T12:36:09;27.70;90.60
23591;DHT22;11973;52.098;7.582;2023-08-20T12:38:34;27.90;90.10
23591;DHT22;11973;52.098;7.582;2023-08-20T12:41:01;28.00;89.70
23591;DHT22;11973;52.098;7.582;2023-08-20T12:43:29;28.00;89.00
23591;DHT22;11973;52.098;7.582;2023-08-20T12:45:55;28.10;88.50
23591;DHT22;11973;52.098;7.582;2023-08-20T12:48:20;28.20;87.90
23591;DHT22;11973;52.098;7.582;2023-08-20T12:50:46;28.30;87.60
23591;DHT22;11973;52.098;7.582;2023-08-20T12:53:12;28.30;86.80
23591;DHT22;11973;52.098;7.582;2023-08-20T12:55:38;28.30;86.40
23591;DHT22;11973;52.098;7.582;2023-08-20T12:58:04;28.20;85.80
23591;DHT22;11973;52.098;7.582;2023-08-20T13:00:30;28.10;85.40
23591;DHT22;11973;52.098;7.582;2023-08-20T13:02:56;28.10;85.20
23591;DHT22;11973;52.098;7.582;2023-08-20T13:05:23;28.10;84.80
23591;DHT22;11973;52.098;7.582;2023-08-20T13:07:50;28.10;84.20
23591;DHT22;11973;52.098;7.582;2023-08-20T13:10:16;28.10;83.90
23591;DHT22;11973;52.098;7.582;2023-08-20T13:12:48;28.10;83.50
23591;DHT22;11973;52.098;7.582;2023-08-20T13:15:18;28.10;83.00
23591;DHT22;11973;52.098;7.582;2023-08-20T13:17:46;28.20;82.80
23591;DHT22;11973;52.098;7.582;2023-08-20T13:20:12;28.20;82.60
23591;DHT22;11973;52.098;7.582;2023-08-20T13:22:38;28.30;83.00
23591;DHT22;11973;52.098;7.582;2023-08-20T13:25:04;28.30;81.60
23591;DHT22;11973;52.098;7.582;2023-08-20T13:27:30;28.30;81.10
23591;DHT22;11973;52.098;7.582;2023-08-20T13:29:57;28.40;80.60
23591;DHT22;11973;52.098;7.582;2023-08-20T13:32:23;28.40;80.00
23591;DHT22;11973;52.098;7.582;2023-08-20T13:34:52;28.40;80.50
23591;DHT22;11973;52.098;7.582;2023-08-20T13:37:18;28.40;79.40
23591;DHT22;11973;52.098;7.582;2023-08-20T13:39:44;28.40;78.90
23591;DHT22;11973;52.098;7.582;2023-08-20T13:42:09;28.50;78.30
23591;DHT22;11973;52.098;7.582;2023-08-20T13:44:35;28.50;77.90
23591;DHT22;11973;52.098;7.582;2023-08-20T13:47:01;28.50;77.50
23591;DHT22;11973;52.098;7.582;2023-08-20T13:49:26;28.50;77.30
23591;DHT22;11973;52.098;7.582;2023-08-20T13:51:52;28.60;78.00
23591;DHT22;11973;52.098;7.582;2023-08-20T13:54:18;28.60;76.80
23591;DHT22;11973;52.098;7.582;2023-08-20T13:56:44;28.70;76.40
23591;DHT22;11973;52.098;7.582;2023-08-20T13:59:10;28.80;76.60
23591;DHT22;11973;52.098;7.582;2023-08-20T14:01:36;28.80;75.60
23591;DHT22;11973;52.098;7.582;2023-08-20T14:04:01;28.80;75.30
23591;DHT22;11973;52.098;7.582;2023-08-20T14:06:28;28.90;75.00
23591;DHT22;11973;52.098;7.582;2023-08-20T14:08:54;28.90;75.50
23591;DHT22;11973;52.098;7.582;2023-08-20T14:11:20;29.00;74.40
23591;DHT22;11973;52.098;7.582;2023-08-20T14:13:47;29.10;73.90
23591;DHT22;11973;52.098;7.582;2023-08-20T14:16:15;29.20;73.60
23591;DHT22;11973;52.098;7.582;2023-08-20T14:18:40;29.30;73.10
23591;DHT22;11973;52.098;7.582;2023-08-20T14:21:06;29.50;72.90
23591;DHT22;11973;52.098;7.582;2023-08-20T14:23:32;29.80;73.00
23591;DHT22;11973;52.098;7.582;2023-08-20T18:34:22;25.50;55.40
23591;DHT22;11973;52.098;7.582;2023-08-20T18:36:47;25.20;56.10
23591;DHT22;11973;52.098;7.582;2023-08-20T18:39:14;25.10;56.60
23591;DHT22;11973;52.098;7.582;2023-08-20T18:41:43;25.10;57.20
23591;DHT22;11973;52.098;7.582;2023-08-20T18:44:09;25.10;57.50
23591;DHT22;11973;52.098;7.582;2023-08-20T18:46:34;25.00;57.80
23591;DHT22;11973;52.098;7.582;2023-08-20T18:49:01;25.00;58.20
23591;DHT22;11973;52.098;7.582;2023-08-20T18:51:28;24.90;58.60
23591;DHT22;11973;52.098;7.582;2023-08-20T18:53:53;24.90;59.60
23591;DHT22;11973;52.098;7.582;2023-08-20T18:56:19;24.70;59.20
23591;DHT22;11973;52.098;7.582;2023-08-20T18:58:45;24.70;59.60
23591;DHT22;11973;52.098;7.582;2023-08-20T19:01:11;24.60;59.90
23591;DHT22;11973;52.098;7.582;2023-08-20T19:03:37;24.50;60.20
23591;DHT22;11973;52.098;7.582;2023-08-20T19:06:03;24.50;60.70
23591;DHT22;11973;52.098;7.582;2023-08-20T19:08:29;24.40;61.00
23591;DHT22;11973;52.098;7.582;2023-08-20T19:11:01;24.30;61.40
23591;DHT22;11973;52.098;7.582;2023-08-20T19:13:29;24.20;61.80
23591;DHT22;11973;52.098;7.582;2023-08-20T19:15:54;24.10;62.10
23591;DHT22;11973;52.098;7.582;2023-08-20T19:18:21;24.00;62.40
23591;DHT22;11973;52.098;7.582;2023-08-20T19:20:49;24.00;62.90
23591;DHT22;11973;52.098;7.582;2023-08-20T19:23:16;23.90;63.20
23591;DHT22;11973;52.098;7.582;2023-08-20T19:25:42;23.80;63.50
23591;DHT22;11973;52.098;7.582;2023-08-20T19:28:10;23.70;64.00
23591;DHT22;11973;52.098;7.582;2023-08-20T19:30:45;23.70;64.40
23591;DHT22;11973;52.098;7.582;2023-08-20T19:33:12;23.60;64.80
23591;DHT22;11973;52.098;7.582;2023-08-20T19:35:39;23.50;65.00
23591;DHT22;11973;52.098;7.582;2023-08-20T19:38:05;23.40;65.30
23591;DHT22;11973;52.098;7.582;2023-08-20T19:40:37;23.40;65.70
23591;DHT22;11973;52.098;7.582;2023-08-20T19:43:04;23.30;66.30
23591;DHT22;11973;52.098;7.582;2023-08-20T19:45:30;23.20;66.40
23591;DHT22;11973;52.098;7.582;2023-08-20T19:47:56;23.10;66.70
23591;DHT22;11973;52.098;7.582;2023-08-20T19:50:22;23.10;67.10
23591;DHT22;11973;52.098;7.582;2023-08-20T19:52:48;23.00;67.50
23591;DHT22;11973;52.098;7.582;2023-08-20T19:55:14;23.00;68.50
23591;DHT22;11973;52.098;7.582;2023-08-20T19:57:39;22.90;68.20
23591;DHT22;11973;52.098;7.582;2023-08-20T20:00:06;22.80;68.50
23591;DHT22;11973;52.098;7.582;2023-08-20T20:02:43;22.80;68.80
23591;DHT22;11973;52.098;7.582;2023-08-20T20:05:10;22.70;69.90
23591;DHT22;11973;52.098;7.582;2023-08-20T20:07:37;22.70;70.30
23591;DHT22;11973;52.098;7.582;2023-08-20T20:10:04;22.60;69.70
23591;DHT22;11973;52.098;7.582;2023-08-20T20:12:30;22.50;69.90
23591;DHT22;11973;52.098;7.582;2023-08-20T20:14:57;22.50;70.20
23591;DHT22;11973;52.098;7.582;2023-08-20T20:17:23;22.40;70.50
23591;DHT22;11973;52.098;7.582;2023-08-20T20:19:49;22.40;70.60
23591;DHT22;11973;52.098;7.582;2023-08-20T20:22:15;22.30;70.80
23591;DHT22;11973;52.098;7.582;2023-08-20T20:24:41;22.30;71.10
23591;DHT22;11973;52.098;7.582;2023-08-20T20:27:07;22.20;71.30
23591;DHT22;11973;52.098;7.582;2023-08-20T20:29:34;22.20;71.60
23591;DHT22;11973;52.098;7.582;2023-08-20T20:32:00;22.10;71.80
23591;DHT22;11973;52.098;7.582;2023-08-20T20:34:25;22.00;72.90
23591;DHT22;11973;52.098;7.582;2023-08-20T20:36:51;22.00;72.40
23591;DHT22;11973;52.098;7.582;2023-08-20T20:39:17;22.00;72.60
23591;DHT22;11973;52.098;7.582;2023-08-20T20:41:42;21.90;72.80
23591;DHT22;11973;52.098;7.582;2023-08-20T20:44:08;21.90;73.10
23591;DHT22;11973;52.098;7.582;2023-08-20T20:46:34;21.80;73.20
23591;DHT22;11973;52.098;7.582;2023-08-20T20:48:59;21.80;73.50
23591;DHT22;11973;52.098;7.582;2023-08-20T20:51:26;21.70;73.60
23591;DHT22;11973;52.098;7.582;2023-08-20T20:53:53;21.70;73.80
23591;DHT22;11973;52.098;7.582;2023-08-20T20:56:19;21.70;74.10
23591;DHT22;11973;52.098;7.582;2023-08-20T20:58:45;21.60;74.30
23591;DHT22;11973;52.098;7.582;2023-08-20T21:01:11;21.60;74.50
23591;DHT22;11973;52.098;7.582;2023-08-20T21:03:37;21.50;74.70
23591;DHT22;11973;52.098;7.582;2023-08-20T21:06:06;21.50;75.80
23591;DHT22;11973;52.098;7.582;2023-08-20T21:08:32;21.50;75.30
23591;DHT22;11973;52.098;7.582;2023-08-20T21:10:59;21.40;75.30
23591;DHT22;11973;52.098;7.582;2023-08-20T21:13:24;21.30;75.40
23591;DHT22;11973;52.098;7.582;2023-08-20T21:15:50;21.30;75.60
23591;DHT22;11973;52.098;7.582;2023-08-20T21:18:16;21.20;75.80
23591;DHT22;11973;52.098;7.582;2023-08-20T21:20:42;21.20;76.00
23591;DHT22;11973;52.098;7.582;2023-08-20T21:23:07;21.10;76.10
23591;DHT22;11973;52.098;7.582;2023-08-20T21:25:36;21.10;76.30
23591;DHT22;11973;52.098;7.582;2023-08-20T21:28:02;21.10;76.60
23591;DHT22;11973;52.098;7.582;2023-08-20T21:30:28;21.00;76.60
23591;DHT22;11973;52.098;7.582;2023-08-20T21:32:53;21.00;77.00
23591;DHT22;11973;52.098;7.582;2023-08-20T21:35:19;20.90;76.90
23591;DHT22;11973;52.098;7.582;2023-08-20T21:37:45;20.90;77.10
23591;DHT22;11973;52.098;7.582;2023-08-20T21:40:11;20.90;77.30
23591;DHT22;11973;52.098;7.582;2023-08-20T21:42:37;20.90;77.50
23591;DHT22;11973;52.098;7.582;2023-08-20T21:45:04;20.80;77.70
23591;DHT22;11973;52.098;7.582;2023-08-20T21:47:30;20.80;77.90
23591;DHT22;11973;52.098;7.582;2023-08-20T21:49:57;20.80;78.10
23591;DHT22;11973;52.098;7.582;2023-08-20T21:52:23;20.80;78.20
23591;DHT22;11973;52.098;7.582;2023-08-20T21:54:50;20.80;79.00
23591;DHT22;11973;52.098;7.582;2023-08-20T21:57:17;20.80;78.40
23591;DHT22;11973;52.098;7.582;2023-08-20T21:59:48;20.70;78.50
23591;DHT22;11973;52.098;7.582;2023-08-20T22:02:14;20.70;78.70
23591;DHT22;11973;52.098;7.582;2023-08-20T22:04:40;20.70;78.80
23591;DHT22;11973;52.098;7.582;2023-08-20T22:07:05;20.70;79.00
23591;DHT22;11973;52.098;7.582;2023-08-20T22:09:31;20.60;79.00
23591;DHT22;11973;52.098;7.582;2023-08-20T22:11:57;20.60;79.10
23591;DHT22;11973;52.098;7.582;2023-08-20T22:14:24;20.50;79.30
23591;DHT22;11973;52.098;7.582;2023-08-20T22:16:53;20.50;79.40
23591;DHT22;11973;52.098;7.582;2023-08-20T22:19:19;20.50;79.60
23591;DHT22;11973;52.098;7.582;2023-08-20T22:21:48;20.40;79.70
23591;DHT22;11973;52.098;7.582;2023-08-20T22:24:14;20.40;79.90
23591;DHT22;11973;52.098;7.582;2023-08-20T22:26:48;20.30;80.00
23591;DHT22;11973;52.098;7.582;2023-08-20T22:29:15;20.30;80.30
